Time;durP1;ratioP1;P1;durP2;ratioP2;P2;SDS_P1;SDS_P2;PMS_P1;PMS_P2;Temp;Humidity;BMP_temperature;BMP_pressure;BME280_temperature;BME280_humidity;BME280_pressure;Samples;Min_cycle;Max_cycle;Signal;HPM_P1;HPM_P2
2021/12/09 04:01:25;;;;;;;40.40;19.20;;;1.30;99.90;;;;;;5601106;22;20049;-89
2021/12/09 04:03:51;;;;;;;42.17;19.58;;;1.30;99.90;;;;;;4998681;28;20477;-87
2021/12/09 04:06:17;;;;;;;42.63;19.23;;;1.30;99.90;;;;;;5014723;28;20044;-88
2021/12/09 04:08:43;;;;;;;39.25;19.85;;;1.30;99.90;;;;;;5014952;28;20073;-87
2021/12/09 04:11:10;;;;;;;37.85;19.77;;;1.30;99.90;;;;;;5006522;28;20064;-88
2021/12/09 04:13:38;;;;;;;39.75;20.75;;;1.30;99.90;;;;;;5034721;28;20041;-86
2021/12/09 04:16:07;;;;;;;41.92;19.80;;;1.30;99.90;;;;;;5034060;28;20052;-88
2021/12/09 04:18:33;;;;;;;44.08;20.40;;;1.30;99.90;;;;;;5018070;28;20176;-88
2021/12/09 04:20:59;;;;;;;43.53;20.42;;;1.30;99.90;;;;;;5035707;28;20056;-88
2021/12/09 04:23:25;;;;;;;45.60;20.25;;;1.20;99.90;;;;;;5034658;28;20037;-90
2021/12/09 04:25:52;;;;;;;40.45;19.65;;;1.20;99.90;;;;;;5017955;28;20029;-90
2021/12/09 04:28:18;;;;;;;39.13;20.05;;;1.20;99.90;;;;;;5034412;28;20392;-87
2021/12/09 04:30:44;;;;;;;41.78;20.23;;;1.20;99.90;;;;;;5035459;28;20500;-87
2021/12/09 04:33:10;;;;;;;45.00;20.80;;;1.20;99.90;;;;;;5034126;28;20041;-87
2021/12/09 04:35:35;;;;;;;43.10;20.10;;;1.20;99.90;;;;;;5033940;28;20038;-87
2021/12/09 04:38:01;;;;;;;44.80;20.75;;;1.20;99.90;;;;;;5017680;28;20037;-89
2021/12/09 04:40:27;;;;;;;43.40;20.15;;;1.20;99.90;;;;;;5033806;28;20033;-88
2021/12/09 04:42:53;;;;;;;42.88;20.90;;;1.20;99.90;;;;;;5017193;28;20114;-87
2021/12/09 04:45:18;;;;;;;36.72;19.15;;;1.20;99.90;;;;;;5033336;28;20049;-89
2021/12/09 04:47:44;;;;;;;41.13;19.63;;;1.10;99.90;;;;;;5034278;28;20049;-87
2021/12/09 04:50:10;;;;;;;44.33;20.55;;;1.10;99.90;;;;;;5017762;28;20042;-89
2021/12/09 04:52:37;;;;;;;37.85;20.27;;;1.10;99.90;;;;;;5034027;28;20041;-86
2021/12/09 04:55:06;;;;;;;41.70;19.35;;;1.20;99.90;;;;;;5017506;28;20049;-87
2021/12/09 04:57:31;;;;;;;43.40;19.17;;;1.20;99.90;;;;;;5017451;28;20072;-87
2021/12/09 04:59:57;;;;;;;38.92;20.35;;;1.10;99.90;;;;;;5033524;28;20527;-87
2021/12/09 05:02:33;;;;;;;37.33;20.10;;;1.20;99.90;;;;;;5033416;28;20045;-88
2021/12/09 05:04:59;;;;;;;49.30;21.05;;;1.10;99.90;;;;;;5017055;28;20144;-87
2021/12/09 05:07:25;;;;;;;38.10;19.60;;;1.10;99.90;;;;;;5034873;28;20136;-89
2021/12/09 05:09:51;;;;;;;41.30;19.40;;;1.10;99.90;;;;;;5034043;28;20373;-88
2021/12/09 05:12:19;;;;;;;47.90;20.15;;;1.10;99.90;;;;;;5033201;28;20564;-89
2021/12/09 05:14:45;;;;;;;42.50;20.13;;;1.10;99.90;;;;;;5017064;28;20049;-88
2021/12/09 05:17:11;;;;;;;41.38;20.13;;;1.10;99.90;;;;;;5016907;28;20107;-89
2021/12/09 05:19:37;;;;;;;40.83;20.08;;;1.10;99.90;;;;;;5034518;28;20040;-88
2021/12/09 05:22:03;;;;;;;39.75;20.90;;;1.10;99.90;;;;;;5034560;28;20033;-88
2021/12/09 05:24:29;;;;;;;42.08;20.05;;;1.10;99.90;;;;;;5016977;28;20523;-89
2021/12/09 05:26:56;;;;;;;40.30;19.83;;;1.10;99.90;;;;;;5016655;28;20493;-88
2021/12/09 05:29:28;;;;;;;38.05;19.85;;;1.10;99.90;;;;;;5017095;28;20055;-87
2021/12/09 05:32:08;;;;;;;37.70;19.70;;;1.10;99.90;;;;;;5032961;28;20073;-88
2021/12/09 05:34:37;;;;;;;42.83;20.20;;;1.00;99.90;;;;;;5016478;28;20037;-90
2021/12/09 05:37:06;;;;;;;45.03;19.50;;;1.00;99.90;;;;;;5034481;28;20037;-88
2021/12/09 05:39:32;;;;;;;49.08;21.52;;;1.00;99.90;;;;;;5034148;28;20044;-89
2021/12/09 05:41:59;;;;;;;48.88;20.02;;;1.00;99.90;;;;;;5034280;28;20041;-88
2021/12/09 05:44:25;;;;;;;41.40;20.88;;;1.00;99.90;;;;;;5032658;28;20544;-86
2021/12/09 05:46:51;;;;;;;42.25;20.27;;;1.00;99.90;;;;;;5032695;28;20048;-88
2021/12/09 05:49:17;;;;;;;37.70;19.85;;;1.00;99.90;;;;;;5032695;28;20053;-89
2021/12/09 05:51:44;;;;;;;44.15;20.50;;;1.00;99.90;;;;;;5032642;28;20049;-90
2021/12/09 05:54:10;;;;;;;35.78;19.85;;;1.00;99.90;;;;;;5016668;28;20480;-89
2021/12/09 05:56:36;;;;;;;41.22;21.52;;;0.90;99.90;;;;;;5032754;28;20038;-89
2021/12/09 05:59:04;;;;;;;45.00;20.98;;;0.90;99.90;;;;;;5032532;28;20098;-89
2021/12/09 06:01:29;;;;;;;46.30;21.70;;;0.90;99.90;;;;;;5032666;28;20037;-88
2021/12/09 06:03:55;;;;;;;45.50;21.52;;;0.90;99.90;;;;;;5016578;28;20064;-89
2021/12/09 06:06:21;;;;;;;42.65;20.42;;;0.90;99.90;;;;;;5033166;28;20131;-89
2021/12/09 06:08:47;;;;;;;47.58;21.45;;;0.80;99.90;;;;;;5033952;28;20453;-87
2021/12/09 06:11:13;;;;;;;45.67;21.83;;;0.90;99.90;;;;;;5033753;28;20077;-88
2021/12/09 06:13:40;;;;;;;46.22;22.15;;;0.80;99.90;;;;;;5032999;28;20037;-88
2021/12/09 06:16:07;;;;;;;44.03;20.90;;;0.80;99.90;;;;;;5032404;28;20103;-88
2021/12/09 06:18:33;;;;;;;47.92;22.27;;;0.80;99.90;;;;;;5017736;28;20033;-87
2021/12/09 06:20:58;;;;;;;45.38;22.23;;;0.80;99.90;;;;;;5037528;28;20073;-88
2021/12/09 06:23:24;;;;;;;49.17;21.98;;;0.80;99.90;;;;;;5036432;28;20041;-89
2021/12/09 06:25:50;;;;;;;44.90;22.08;;;0.80;99.90;;;;;;5019652;28;20068;-89
2021/12/09 06:28:19;;;;;;;46.88;21.60;;;0.80;99.90;;;;;;5037804;28;20090;-85
2021/12/09 06:30:46;;;;;;;46.75;21.33;;;0.70;99.90;;;;;;5036010;28;20440;-86
2021/12/09 06:33:12;;;;;;;42.38;22.38;;;0.70;99.90;;;;;;5019811;28;20041;-81
2021/12/09 06:35:38;;;;;;;42.88;21.73;;;0.80;99.90;;;;;;5035669;28;20038;-88
2021/12/09 06:38:08;;;;;;;46.58;21.48;;;0.80;99.90;;;;;;5036250;28;20362;-86
2021/12/09 06:40:34;;;;;;;42.97;22.00;;;0.80;99.90;;;;;;5036493;28;20049;-86
2021/12/09 06:43:00;;;;;;;47.40;21.05;;;0.80;99.90;;;;;;5035958;28;20087;-85
2021/12/09 06:45:27;;;;;;;48.13;21.80;;;0.80;99.90;;;;;;5036350;28;20139;-87
2021/12/09 06:47:54;;;;;;;47.85;21.65;;;0.80;99.90;;;;;;5020660;28;20037;-87
2021/12/09 06:50:20;;;;;;;42.70;20.20;;;0.80;99.90;;;;;;5019585;28;20037;-90
2021/12/09 06:52:47;;;;;;;48.05;20.83;;;0.80;99.90;;;;;;5037431;28;20432;-86
2021/12/09 06:55:15;;;;;;;43.47;19.85;;;0.80;99.90;;;;;;5035762;28;20393;-88
2021/12/09 06:57:43;;;;;;;47.10;21.58;;;0.80;99.90;;;;;;5036683;28;20042;-86
2021/12/09 07:00:15;;;;;;;48.00;21.45;;;0.80;99.90;;;;;;5036117;28;20076;-86
2021/12/09 07:02:43;;;;;;;51.58;21.33;;;0.80;99.90;;;;;;5035749;28;20033;-86
2021/12/09 07:05:11;;;;;;;51.95;21.63;;;0.80;99.90;;;;;;5037817;28;20041;-86
2021/12/09 07:07:38;;;;;;;45.85;21.27;;;0.80;99.90;;;;;;5035366;28;20049;-86
2021/12/09 07:10:06;;;;;;;45.88;20.65;;;0.80;99.90;;;;;;5035756;28;20107;-87
2021/12/09 07:12:34;;;;;;;50.75;21.92;;;0.80;99.90;;;;;;5036703;28;20037;-88
2021/12/09 07:15:01;;;;;;;46.20;20.08;;;0.80;99.90;;;;;;5035252;28;20057;-85
2021/12/09 07:17:27;;;;;;;49.10;20.85;;;0.80;99.90;;;;;;5036027;28;20042;-87
2021/12/09 07:19:52;;;;;;;42.55;21.13;;;0.80;99.90;;;;;;5035793;28;20072;-87
2021/12/09 07:22:18;;;;;;;47.05;20.83;;;0.80;99.90;;;;;;5035282;28;20068;-86
2021/12/09 07:24:45;;;;;;;36.38;18.95;;;0.80;99.90;;;;;;5035077;28;20063;-88
2021/12/09 07:27:11;;;;;;;49.30;20.63;;;0.80;99.90;;;;;;5035039;28;20048;-89
2021/12/09 07:29:36;;;;;;;49.58;20.13;;;0.80;99.90;;;;;;5033790;28;20042;-85
2021/12/09 07:32:03;;;;;;;45.38;19.52;;;0.80;99.90;;;;;;5017927;28;20111;-88
2021/12/09 07:34:29;;;;;;;47.90;19.27;;;0.80;99.90;;;;;;5018949;28;20500;-87
2021/12/09 07:36:57;;;;;;;46.08;19.80;;;0.80;99.90;;;;;;5034707;28;20045;-87
2021/12/09 07:39:23;;;;;;;41.83;19.77;;;0.80;99.90;;;;;;5036012;28;20042;-86
2021/12/09 07:41:49;;;;;;;47.47;19.80;;;0.80;99.90;;;;;;5018046;28;20053;-86
2021/12/09 07:44:17;;;;;;;45.13;18.20;;;0.80;99.90;;;;;;5034482;28;20123;-88
2021/12/09 07:46:45;;;;;;;42.72;18.70;;;0.80;99.90;;;;;;5035890;28;20511;-87
2021/12/09 07:49:11;;;;;;;43.55;18.98;;;0.90;99.90;;;;;;5034782;28;20075;-86
2021/12/09 07:51:37;;;;;;;44.70;19.67;;;0.80;99.90;;;;;;5034582;28;20077;-87
2021/12/09 07:54:03;;;;;;;46.33;18.30;;;0.90;99.90;;;;;;5034572;28;20080;-86
2021/12/09 07:56:28;;;;;;;49.05;19.10;;;0.90;99.90;;;;;;5034380;28;20080;-88
2021/12/09 07:58:54;;;;;;;38.10;17.02;;;0.90;99.90;;;;;;5034113;28;20045;-86
2021/12/09 08:01:20;;;;;;;43.60;18.33;;;0.90;99.90;;;;;;5034237;28;20033;-90
2021/12/09 08:03:47;;;;;;;37.90;17.63;;;1.00;99.90;;;;;;5018794;28;20358;-87
2021/12/09 08:06:14;;;;;;;38.58;17.23;;;0.90;99.90;;;;;;5017756;28;20042;-88
2021/12/09 08:08:40;;;;;;;34.75;16.58;;;1.00;99.90;;;;;;5017961;28;20087;-86
2021/12/09 08:11:07;;;;;;;39.45;17.48;;;1.00;99.90;;;;;;5017422;28;20404;-90
2021/12/09 08:13:33;;;;;;;36.80;16.33;;;1.00;99.90;;;;;;5033826;28;20049;-88
2021/12/09 08:16:00;;;;;;;43.42;17.65;;;1.00;99.90;;;;;;5035119;28;20064;-86
2021/12/09 08:18:27;;;;;;;33.80;15.15;;;1.00;99.90;;;;;;5033887;28;20042;-86
2021/12/09 08:20:56;;;;;;;36.25;16.30;;;1.10;99.90;;;;;;5016951;28;20038;-87
2021/12/09 08:23:22;;;;;;;37.03;16.27;;;1.10;99.90;;;;;;5017231;28;20119;-88
2021/12/09 08:25:48;;;;;;;40.42;15.48;;;1.10;99.90;;;;;;5033497;28;20052;-87
2021/12/09 08:28:15;;;;;;;34.08;16.20;;;1.20;99.90;;;;;;5017230;28;20049;-88
2021/12/09 08:30:41;;;;;;;34.35;16.05;;;1.30;99.90;;;;;;5017680;28;20408;-88
2021/12/09 08:33:07;;;;;;;36.22;17.30;;;1.40;99.90;;;;;;5024941;28;20052;-89
2021/12/09 08:35:33;;;;;;;40.13;15.98;;;1.40;99.90;;;;;;5028236;28;20049;-88
2021/12/09 08:38:00;;;;;;;33.72;16.05;;;1.60;99.90;;;;;;5038524;28;20477;-88
2021/12/09 08:40:28;;;;;;;34.42;14.80;;;1.90;99.90;;;;;;5037376;28;20053;-88
2021/12/09 08:42:54;;;;;;;32.75;14.80;;;2.20;99.90;;;;;;5018338;28;20049;-85
2021/12/09 08:45:21;;;;;;;30.08;14.93;;;2.50;99.90;;;;;;5017761;28;20043;-88
2021/12/09 08:47:49;;;;;;;34.72;14.98;;;2.70;99.90;;;;;;5017034;28;20071;-89
2021/12/09 08:50:21;;;;;;;28.55;14.68;;;2.80;99.90;;;;;;5033424;28;20052;-86
2021/12/09 08:52:49;;;;;;;32.17;13.73;;;3.00;99.90;;;;;;5033247;28;20049;-86
2021/12/09 08:55:15;;;;;;;29.38;14.57;;;3.20;99.90;;;;;;5034512;28;20466;-85
2021/12/09 08:57:41;;;;;;;33.30;13.93;;;3.00;99.90;;;;;;5033436;28;20048;-86
2021/12/09 09:00:09;;;;;;;27.02;13.52;;;2.60;99.90;;;;;;5017940;28;20041;-86
2021/12/09 09:02:37;;;;;;;26.75;13.07;;;2.30;99.90;;;;;;5032791;28;20116;-89
2021/12/09 09:05:04;;;;;;;31.70;12.95;;;2.10;99.90;;;;;;5016567;28;20116;-86
2021/12/09 09:07:29;;;;;;;31.20;12.70;;;2.00;99.90;;;;;;5016599;28;20065;-86
2021/12/09 09:09:55;;;;;;;28.88;13.13;;;1.90;99.90;;;;;;5016584;28;20072;-87
2021/12/09 09:12:21;;;;;;;29.17;13.07;;;1.90;99.90;;;;;;5033142;28;20546;-87
2021/12/09 09:14:47;;;;;;;28.45;13.68;;;1.80;99.90;;;;;;5016056;28;20080;-87
2021/12/09 09:17:13;;;;;;;33.88;13.55;;;1.80;99.90;;;;;;5033038;28;20083;-86
2021/12/09 09:19:38;;;;;;;28.83;12.95;;;1.80;99.90;;;;;;5016858;28;20481;-87
2021/12/09 09:22:05;;;;;;;25.90;12.75;;;1.80;99.90;;;;;;5033196;28;20042;-87
2021/12/09 09:24:31;;;;;;;38.03;13.32;;;1.80;99.90;;;;;;5032921;28;20051;-86
2021/12/09 09:26:57;;;;;;;26.77;12.50;;;1.80;99.90;;;;;;5034388;28;20139;-87
2021/12/09 09:29:24;;;;;;;28.02;12.43;;;1.80;99.90;;;;;;5032790;28;20474;-89
2021/12/09 09:31:51;;;;;;;26.58;12.20;;;1.80;99.90;;;;;;5033811;28;20071;-88
2021/12/09 09:34:20;;;;;;;32.42;12.30;;;1.80;99.90;;;;;;5033073;28;20128;-88
2021/12/09 09:36:45;;;;;;;24.25;11.98;;;1.90;99.90;;;;;;5033062;28;20124;-90
2021/12/09 09:39:22;;;;;;;24.58;12.07;;;1.90;99.90;;;;;;5016346;28;20072;-88
2021/12/09 09:44:54;;;;;;;32.15;12.32;;;2.00;99.90;;;;;;4982685;28;20132;-88
2021/12/09 09:47:23;;;;;;;33.38;13.13;;;2.00;99.90;;;;;;5034121;28;20045;-89
2021/12/09 09:49:51;;;;;;;21.42;11.88;;;2.00;99.90;;;;;;5015980;28;20084;-86
2021/12/09 09:52:17;;;;;;;23.75;11.63;;;2.10;99.90;;;;;;5032446;28;20393;-89
2021/12/09 09:54:43;;;;;;;23.50;10.75;;;2.10;99.90;;;;;;5015280;28;20072;-89
2021/12/09 09:57:10;;;;;;;26.98;11.10;;;2.10;99.90;;;;;;5032544;28;20045;-87
2021/12/09 09:59:40;;;;;;;24.40;11.38;;;2.20;99.90;;;;;;5033759;28;20041;-87
2021/12/09 10:02:07;;;;;;;23.90;11.18;;;2.20;99.90;;;;;;5032605;28;20037;-88
2021/12/09 10:04:43;;;;;;;18.30;9.68;;;2.20;99.90;;;;;;5016516;28;20084;-90
2021/12/09 10:07:11;;;;;;;23.90;10.45;;;2.20;99.90;;;;;;5016286;28;20478;-91
2021/12/09 10:09:37;;;;;;;26.63;11.13;;;2.20;99.90;;;;;;5015785;28;20084;-88
2021/12/09 10:12:03;;;;;;;28.25;11.52;;;2.30;99.90;;;;;;5033834;28;20076;-88
2021/12/09 10:14:34;;;;;;;27.42;11.55;;;2.20;99.90;;;;;;5016785;28;20175;-89
2021/12/09 10:17:23;;;;;;;31.38;11.65;;;2.30;99.90;;;;;;5034125;28;20093;-90
2021/12/09 10:20:00;;;;;;;28.35;12.60;;;2.30;99.90;;;;;;5015680;28;20041;-90
2021/12/09 10:22:31;;;;;;;31.05;12.15;;;2.30;99.90;;;;;;5016173;28;20034;-88
2021/12/09 10:24:58;;;;;;;28.30;11.80;;;2.30;99.90;;;;;;5032485;28;20544;-88
2021/12/09 10:27:34;;;;;;;30.30;11.73;;;2.40;99.90;;;;;;5032695;28;20041;-91
2021/12/09 10:30:03;;;;;;;32.50;13.10;;;2.40;99.90;;;;;;5032660;28;20375;-83
2021/12/09 10:32:33;;;;;;;29.35;13.70;;;2.40;99.90;;;;;;5032087;28;20053;-88
2021/12/09 10:35:07;;;;;;;34.30;14.00;;;2.40;99.90;;;;;;5032253;28;20045;-88
2021/12/09 10:37:35;;;;;;;34.65;13.82;;;2.40;99.90;;;;;;5033753;28;20041;-89
2021/12/09 10:40:08;;;;;;;30.02;13.05;;;2.50;99.90;;;;;;5032107;28;20469;-88
2021/12/09 10:42:45;;;;;;;26.85;11.65;;;2.50;99.90;;;;;;5016425;28;20127;-90
2021/12/09 10:45:30;;;;;;;26.83;12.35;;;2.50;99.90;;;;;;5032950;28;20048;-90
2021/12/09 10:48:24;;;;;;;36.72;12.25;;;2.50;99.90;;;;;;5034146;28;20064;-88
2021/12/09 10:53:34;;;;;;;26.58;11.57;;;2.60;99.90;;;;;;5032592;28;20409;-89
2021/12/09 10:56:10;;;;;;;28.08;12.07;;;2.60;99.90;;;;;;5032468;28;20041;-91
2021/12/09 10:58:40;;;;;;;;;;;2.60;99.90;;;;;;5033910;28;20037;-88
2021/12/09 11:01:07;;;;;;;27.33;11.48;;;2.60;99.90;;;;;;5032501;28;19917;-88
2021/12/09 11:03:40;;;;;;;28.77;13.13;;;2.60;99.90;;;;;;5033946;28;20045;-87
2021/12/09 11:06:21;;;;;;;27.25;12.73;;;2.60;99.90;;;;;;5036811;28;20477;-87
2021/12/09 11:08:53;;;;;;;29.55;12.32;;;2.70;99.90;;;;;;5036813;28;20037;-87
2021/12/09 11:11:28;;;;;;;30.85;12.48;;;2.70;99.90;;;;;;5037132;28;20056;-88
2021/12/09 11:14:03;;;;;;;28.75;12.95;;;2.70;99.90;;;;;;5019564;28;20041;-89
2021/12/09 11:16:32;;;;;;;26.05;12.95;;;2.70;99.90;;;;;;5020033;28;20398;-90
2021/12/09 11:19:08;;;;;;;26.42;13.25;;;2.70;99.90;;;;;;5020225;28;20044;-89
2021/12/09 11:21:40;;;;;;;30.70;13.45;;;2.70;99.90;;;;;;5037262;28;20157;-89
2021/12/09 11:24:15;;;;;;;31.20;14.10;;;2.70;99.90;;;;;;5019361;28;20044;-90
2021/12/09 11:26:52;;;;;;;44.65;16.05;;;2.70;99.90;;;;;;5037206;28;20065;-89
2021/12/09 11:29:42;;;;;;;38.20;15.82;;;2.70;99.90;;;;;;5036807;28;20041;-92
2021/12/09 11:32:14;;;;;;;31.88;14.75;;;2.80;99.90;;;;;;5037284;28;20041;-89
2021/12/09 11:34:57;;;;;;;29.63;15.77;;;2.80;99.90;;;;;;5037651;28;20033;-90
2021/12/09 11:40:10;;;;;;;34.75;15.23;;;2.80;99.90;;;;;;5036536;28;20041;-91
2021/12/09 11:42:44;;;;;;;39.10;16.25;;;2.80;99.90;;;;;;5035616;28;20069;-89
2021/12/09 11:45:12;;;;;;;34.30;16.15;;;2.90;99.90;;;;;;5019054;28;20037;-88
2021/12/09 11:47:43;;;;;;;43.28;16.92;;;2.90;99.90;;;;;;5035141;28;20037;-89
2021/12/09 11:50:20;;;;;;;36.97;16.30;;;3.00;99.90;;;;;;5035604;28;20041;-90
2021/12/09 11:52:48;;;;;;;41.95;16.85;;;2.90;99.90;;;;;;5036239;28;20369;-88
2021/12/09 11:55:18;;;;;;;46.88;18.77;;;3.00;99.90;;;;;;5018631;28;20041;-88
2021/12/09 11:58:04;;;;;;;51.88;18.33;;;3.00;99.90;;;;;;5018994;28;20063;-89
2021/12/09 12:07:12;;;;;;;48.58;19.00;;;3.10;99.90;;;;;;5034225;28;20053;-90
2021/12/09 12:12:49;;;;;;;49.65;20.45;;;3.20;99.90;;;;;;5035187;28;20099;-90
2021/12/09 12:18:43;;;;;;;44.28;18.63;;;3.30;99.90;;;;;;5041095;28;20045;-91
2021/12/09 12:29:31;;;;;;;49.72;19.75;;;3.30;99.90;;;;;;5038237;28;20053;-90
2021/12/09 12:37:55;;;;;;;51.47;22.63;;;3.40;99.90;;;;;;5035024;28;20132;-89
2021/12/09 12:40:56;;;;;;;43.00;19.13;;;3.40;99.90;;;;;;5035396;28;20064;-89
2021/12/09 12:43:53;;;;;;;;;;;;;;;;;;;;;
2021/12/09 12:46:54;;;;;;;43.50;18.98;;;3.40;99.90;;;;;;4942102;29;20146;-91
2021/12/09 12:50:13;;;;;;;;;;;;;;;;;;;;;
2021/12/09 12:56:46;;;;;;;42.63;18.73;;;3.50;99.90;;;;;;4883097;29;20052;-89
2021/12/09 12:59:20;;;;;;;45.38;19.90;;;3.50;99.90;;;;;;4895755;29;20102;-89
2021/12/09 13:02:13;;;;;;;;;;;;;;;;;;;;;
2021/12/09 13:16:11;;;;;;;45.35;19.77;;;3.50;99.90;;;;;;5028517;28;20053;-88
2021/12/09 13:19:20;;;;;;;39.55;19.58;;;3.60;99.90;;;;;;5035486;28;20045;-88
2021/12/09 13:21:52;;;;;;;38.53;16.13;;;3.60;99.90;;;;;;5014278;28;20374;-89
2021/12/09 13:24:19;;;;;;;41.63;18.95;;;3.60;99.90;;;;;;5035132;28;20050;-90
2021/12/09 13:27:22;;;;;;;44.58;17.48;;;3.60;99.90;;;;;;5033924;28;20123;-89
2021/12/09 13:30:27;;;;;;;43.38;16.40;;;3.60;99.90;;;;;;5033396;28;20037;-89
2021/12/09 13:47:33;;;;;;;42.55;17.55;;;3.70;99.90;;;;;;5034082;28;20107;-90
2021/12/09 13:55:10;;;;;;;37.30;15.57;;;3.70;99.90;;;;;;5033866;28;20053;-90
2021/12/09 13:57:45;;;;;;;31.75;16.15;;;3.80;99.90;;;;;;5033354;28;20041;-89
2021/12/09 14:00:26;;;;;;;32.83;15.73;;;3.80;99.90;;;;;;5034398;28;20485;-88
2021/12/09 14:03:01;;;;;;;39.58;14.52;;;3.70;99.90;;;;;;5033783;28;20045;-91
2021/12/09 14:05:39;;;;;;;32.28;14.80;;;3.80;99.90;;;;;;5032893;28;20393;-89
2021/12/09 14:08:08;;;;;;;33.55;15.35;;;3.80;99.90;;;;;;5032432;28;20080;-91
2021/12/09 14:10:37;;;;;;;32.45;15.85;;;3.80;99.90;;;;;;5032391;28;20046;-89
2021/12/09 14:13:09;;;;;;;38.25;16.20;;;3.80;99.90;;;;;;5032481;28;20046;-86
2021/12/09 14:16:40;;;;;;;34.97;15.95;;;3.80;99.90;;;;;;5033296;28;20179;-91
2021/12/09 14:18:43;;;;;;;35.30;16.35;;;3.80;99.90;;;;;;5020322;28;20143;-88
2021/12/09 14:21:09;;;;;;;35.60;16.95;;;3.80;99.90;;;;;;5032773;28;20386;-90
2021/12/09 14:23:35;;;;;;;38.90;15.90;;;3.80;99.90;;;;;;5034377;28;20041;-87
2021/12/09 14:26:01;;;;;;;41.17;18.00;;;3.80;99.90;;;;;;5032429;28;20037;-89
2021/12/09 14:28:32;;;;;;;40.63;15.43;;;3.80;99.90;;;;;;5032801;28;20050;-88
2021/12/09 14:30:58;;;;;;;42.45;17.60;;;3.80;99.90;;;;;;5032840;28;20124;-90
2021/12/09 14:33:24;;;;;;;32.15;15.85;;;3.80;99.90;;;;;;5034481;28;20061;-87
2021/12/09 14:35:54;;;;;;;35.38;16.23;;;3.80;99.90;;;;;;5033877;28;20470;-89
2021/12/09 14:38:23;;;;;;;32.50;15.60;;;3.80;99.90;;;;;;5034046;28;20045;-89
2021/12/09 14:40:57;;;;;;;38.33;15.65;;;3.80;99.90;;;;;;5035317;28;20428;-89
2021/12/09 14:43:26;;;;;;;33.70;16.88;;;3.80;99.90;;;;;;5036911;28;20049;-87
2021/12/09 14:46:01;;;;;;;34.17;15.98;;;3.80;99.90;;;;;;5036225;28;20046;-90
2021/12/09 14:48:35;;;;;;;35.17;17.40;;;3.80;99.90;;;;;;5036379;28;20049;-91
2021/12/09 14:51:20;;;;;;;38.90;16.58;;;3.80;99.90;;;;;;5036927;28;20085;-90
2021/12/09 14:53:50;;;;;;;37.15;16.17;;;3.80;99.90;;;;;;5019556;28;20037;-88
2021/12/09 14:56:23;;;;;;;31.75;15.65;;;3.80;99.90;;;;;;5019333;28;20069;-92
2021/12/09 14:58:50;;;;;;;36.33;16.65;;;3.80;99.90;;;;;;5036248;28;20053;-89
2021/12/09 15:01:21;;;;;;;41.35;15.75;;;3.80;99.90;;;;;;5036434;28;20052;-88
2021/12/09 15:03:56;;;;;;;34.75;16.58;;;3.80;99.90;;;;;;5036985;28;20382;-92
2021/12/09 15:06:27;;;;;;;38.03;16.60;;;3.80;99.90;;;;;;5036421;28;20046;-91
2021/12/09 15:09:05;;;;;;;36.30;17.40;;;3.80;99.90;;;;;;5036080;28;20045;-90
2021/12/09 15:11:36;;;;;;;35.13;17.00;;;3.80;99.90;;;;;;5037481;28;20088;-89
2021/12/09 15:14:02;;;;;;;34.78;17.60;;;3.80;99.90;;;;;;5019736;28;20050;-90
2021/12/09 15:16:27;;;;;;;33.10;15.73;;;3.80;99.90;;;;;;5036278;28;20037;-90
2021/12/09 15:18:53;;;;;;;35.80;16.65;;;3.80;99.90;;;;;;5019706;28;20041;-89
2021/12/09 15:21:30;;;;;;;39.00;17.27;;;3.80;99.90;;;;;;5037337;28;20385;-89
2021/12/09 15:24:07;;;;;;;37.38;18.52;;;3.80;99.90;;;;;;5036859;28;20484;-87
2021/12/09 15:26:36;;;;;;;38.97;17.52;;;3.80;99.90;;;;;;5035796;28;20045;-90
2021/12/09 15:29:14;;;;;;;40.80;19.55;;;3.80;99.90;;;;;;5020123;28;20041;-87
2021/12/09 15:31:43;;;;;;;43.28;18.20;;;3.80;99.90;;;;;;5036326;28;20045;-87
2021/12/09 15:34:22;;;;;;;37.72;18.83;;;3.80;99.90;;;;;;5035980;28;20048;-90
2021/12/09 15:37:00;;;;;;;35.53;17.77;;;3.80;99.90;;;;;;5035430;28;20512;-89
2021/12/09 15:39:32;;;;;;;36.78;17.63;;;3.90;99.90;;;;;;5036436;28;20037;-87
2021/12/09 15:42:14;;;;;;;39.38;19.23;;;3.90;99.90;;;;;;5036207;28;20068;-86
2021/12/09 15:44:55;;;;;;;42.00;19.23;;;3.90;99.90;;;;;;5035445;28;20366;-90
2021/12/09 15:47:24;;;;;;;36.38;18.00;;;3.90;99.90;;;;;;5035152;28;20033;-89
2021/12/09 15:50:07;;;;;;;39.10;19.30;;;3.90;99.90;;;;;;5018655;28;20038;-90
2021/12/09 15:52:41;;;;;;;41.10;19.83;;;3.90;99.90;;;;;;5034540;28;20158;-90
2021/12/09 15:55:16;;;;;;;42.25;19.27;;;3.90;99.90;;;;;;5035940;28;20053;-91
2021/12/09 15:57:44;;;;;;;45.60;20.30;;;3.90;99.90;;;;;;5037267;28;20053;-89
2021/12/09 16:00:15;;;;;;;40.13;19.30;;;3.90;99.90;;;;;;5019186;28;20041;-90
2021/12/09 16:02:42;;;;;;;40.47;18.83;;;3.90;99.90;;;;;;5019041;28;20045;-90
2021/12/09 16:05:09;;;;;;;38.25;19.58;;;4.00;99.90;;;;;;5035698;28;20503;-89
2021/12/09 16:07:35;;;;;;;42.55;19.40;;;3.90;99.90;;;;;;5018451;28;20111;-88
2021/12/09 16:10:03;;;;;;;40.30;19.50;;;3.90;99.90;;;;;;5018746;28;20486;-88
2021/12/09 16:12:30;;;;;;;43.53;20.73;;;3.90;99.90;;;;;;5033870;28;20045;-86
2021/12/09 16:14:59;;;;;;;40.38;19.38;;;4.00;99.90;;;;;;5033626;28;20522;-88
2021/12/09 16:17:30;;;;;;;38.88;19.52;;;4.00;99.90;;;;;;5033762;28;20075;-88
2021/12/09 16:19:58;;;;;;;35.80;19.17;;;4.00;99.90;;;;;;5017664;28;20099;-86
2021/12/09 16:24:57;;;;;;;39.58;19.15;;;4.00;99.90;;;;;;5034434;28;20428;-91
2021/12/09 16:27:23;;;;;;;40.45;20.88;;;4.00;99.90;;;;;;5033713;28;20097;-89
2021/12/09 16:29:50;;;;;;;43.33;20.83;;;4.00;99.90;;;;;;5016602;28;20056;-87
2021/12/09 16:32:18;;;;;;;38.92;19.80;;;4.00;99.90;;;;;;5016650;28;20041;-87
2021/12/09 16:34:46;;;;;;;40.47;20.48;;;4.10;99.90;;;;;;5016462;28;20045;-84
2021/12/09 16:37:13;;;;;;;44.50;20.92;;;4.10;99.90;;;;;;5016115;28;20128;-87
2021/12/09 16:39:40;;;;;;;42.53;21.83;;;4.10;99.90;;;;;;5033117;28;20037;-85
2021/12/09 16:42:07;;;;;;;50.05;22.75;;;4.10;99.90;;;;;;5032795;28;20037;-86
2021/12/09 16:44:33;;;;;;;40.67;22.10;;;4.10;99.90;;;;;;5034191;28;20116;-88
2021/12/09 16:46:59;;;;;;;48.67;22.73;;;4.10;99.90;;;;;;5032855;28;20071;-89
2021/12/09 16:49:25;;;;;;;48.45;22.80;;;4.10;99.90;;;;;;5016196;28;20087;-86
2021/12/09 16:51:53;;;;;;;45.10;22.58;;;4.10;99.90;;;;;;5032296;28;20482;-85
2021/12/09 16:54:27;;;;;;;51.33;24.30;;;4.10;99.90;;;;;;5032709;28;20053;-87
2021/12/09 16:57:09;;;;;;;49.22;23.55;;;4.20;99.90;;;;;;5016063;28;20045;-86
2021/12/09 16:59:35;;;;;;;51.25;24.08;;;4.20;99.90;;;;;;5032905;28;20095;-87
2021/12/09 17:02:10;;;;;;;48.42;23.92;;;4.20;99.90;;;;;;5015841;28;20048;-87
2021/12/09 17:04:37;;;;;;;56.25;23.90;;;4.20;99.90;;;;;;5034018;28;20064;-88
2021/12/09 17:07:03;;;;;;;47.05;23.63;;;4.20;99.90;;;;;;5034176;28;20041;-86
2021/12/09 17:09:29;;;;;;;46.60;23.90;;;4.20;99.90;;;;;;5016098;28;20464;-86
2021/12/09 17:11:56;;;;;;;51.22;24.38;;;4.20;99.90;;;;;;5033536;28;20501;-89
2021/12/09 17:14:24;;;;;;;49.40;24.35;;;4.20;99.90;;;;;;5033800;28;20033;-87
2021/12/09 17:16:51;;;;;;;50.53;24.15;;;4.20;99.90;;;;;;5032328;28;20113;-87
2021/12/09 17:19:17;;;;;;;47.42;24.23;;;4.20;99.90;;;;;;5032396;28;20037;-89
2021/12/09 17:21:44;;;;;;;53.15;24.95;;;4.20;99.90;;;;;;5032162;28;20033;-89
2021/12/09 17:24:14;;;;;;;49.00;25.08;;;4.30;99.90;;;;;;5031899;28;20060;-87
2021/12/09 17:26:43;;;;;;;49.75;22.80;;;4.20;99.90;;;;;;5032438;28;20037;-87
2021/12/09 17:29:12;;;;;;;50.47;23.33;;;4.30;99.90;;;;;;5033691;28;20151;-86
2021/12/09 17:31:44;;;;;;;49.30;24.08;;;4.30;99.90;;;;;;5033407;28;20042;-87
2021/12/09 17:34:12;;;;;;;50.08;24.05;;;4.30;99.90;;;;;;5031634;28;20045;-88
2021/12/09 17:36:39;;;;;;;50.70;23.88;;;4.30;99.90;;;;;;5031492;28;20041;-87
2021/12/09 17:39:10;;;;;;;48.90;24.13;;;4.30;99.90;;;;;;5031777;28;20049;-87
2021/12/09 17:41:36;;;;;;;52.75;25.50;;;4.30;99.90;;;;;;5015004;28;20481;-86
2021/12/09 17:44:04;;;;;;;50.42;25.15;;;4.30;99.90;;;;;;5031149;28;20120;-86
2021/12/09 17:46:30;;;;;;;52.25;24.58;;;4.30;99.90;;;;;;5032960;28;20052;-88
2021/12/09 17:48:56;;;;;;;52.20;25.38;;;4.30;99.90;;;;;;5033233;28;20389;-86
2021/12/09 17:51:23;;;;;;;54.55;25.33;;;4.30;99.90;;;;;;5031329;28;20068;-87
2021/12/09 17:53:55;;;;;;;52.80;26.40;;;4.40;99.90;;;;;;5031600;28;20401;-88
2021/12/09 17:56:21;;;;;;;54.08;26.25;;;4.30;99.90;;;;;;5031498;28;20033;-86
2021/12/09 17:58:47;;;;;;;55.60;25.30;;;4.30;99.90;;;;;;5032865;28;20048;-87
2021/12/09 18:01:13;;;;;;;47.75;24.90;;;4.30;99.90;;;;;;5014779;28;20375;-86
2021/12/09 18:03:39;;;;;;;53.17;25.27;;;4.30;99.90;;;;;;5031309;28;20052;-85
2021/12/09 18:06:05;;;;;;;51.90;25.27;;;4.40;99.90;;;;;;5031303;28;20057;-88
2021/12/09 18:08:31;;;;;;;61.90;27.08;;;4.40;99.90;;;;;;5032892;28;20124;-89